createdAt,value
2023-04-11T00:00:53.217Z,80.72
2023-04-11T00:01:56.157Z,80.70
2023-04-11T00:03:00.326Z,80.60
2023-04-11T00:04:04.833Z,80.80
2023-04-11T00:05:08.677Z,80.88
2023-04-11T00:06:11.529Z,80.88
2023-04-11T00:07:14.619Z,81.00
2023-04-11T00:08:17.590Z,80.88
2023-04-11T00:09:20.606Z,80.91
2023-04-11T00:10:23.486Z,80.91
2023-04-11T00:11:26.307Z,81.17
2023-04-11T00:12:29.189Z,81.13
2023-04-11T00:13:31.984Z,81.23
2023-04-11T00:14:34.920Z,81.25
2023-04-11T00:15:39.463Z,81.27
2023-04-11T00:16:43.068Z,81.30
2023-04-11T00:17:45.970Z,81.26
2023-04-11T00:18:48.881Z,81.20
2023-04-11T00:19:53.475Z,81.15
2023-04-11T00:20:56.311Z,81.25
2023-04-11T00:22:00.604Z,81.28
2023-04-11T00:23:03.887Z,81.48
2023-04-11T00:24:08.309Z,81.49
2023-04-11T00:25:11.284Z,81.32
2023-04-11T00:26:14.225Z,81.25
2023-04-11T00:27:17.290Z,81.19
2023-04-11T00:28:20.208Z,81.14
2023-04-11T00:29:23.125Z,81.34
2023-04-11T00:30:26.088Z,81.35
2023-04-11T00:31:29.094Z,81.48
2023-04-11T00:32:32.927Z,81.42
2023-04-11T00:33:35.862Z,81.43
2023-04-11T00:34:39.524Z,81.39
2023-04-11T00:35:42.608Z,81.43
2023-04-11T00:36:46.102Z,81.61
2023-04-11T00:37:54.269Z,81.73
2023-04-11T00:38:58.646Z,81.79
2023-04-11T00:40:02.352Z,81.79
2023-04-11T00:41:05.386Z,81.65
2023-04-11T00:42:09.039Z,81.73
2023-04-11T00:43:12.230Z,81.67
2023-04-11T00:44:15.561Z,81.83
2023-04-11T00:45:18.680Z,81.85
2023-04-11T00:46:22.187Z,81.67
2023-04-11T00:47:25.872Z,82.02
2023-04-11T00:48:28.938Z,81.74
2023-04-11T00:49:32.128Z,81.87
2023-04-11T00:50:39.938Z,81.92
2023-04-11T00:51:42.971Z,81.97
2023-04-11T00:52:47.263Z,81.98
2023-04-11T00:53:50.161Z,82.13
2023-04-11T00:54:53.125Z,82.02
2023-04-11T00:55:56.005Z,82.09
2023-04-11T00:57:04.239Z,82.04
2023-04-11T00:58:08.289Z,82.18
2023-04-11T00:59:11.815Z,82.26
2023-04-11T01:00:15.370Z,82.29
2023-04-11T01:01:20.090Z,82.24
2023-04-11T01:02:25.050Z,82.14
2023-04-11T01:03:30.307Z,82.14
2023-04-11T01:04:33.516Z,82.05
2023-04-11T01:05:37.211Z,82.17
2023-04-11T01:06:41.775Z,82.25
2023-04-11T01:07:48.924Z,82.16
2023-04-11T01:08:52.314Z,82.45
2023-04-11T01:09:55.557Z,82.55
2023-04-11T01:10:58.563Z,82.52
2023-04-11T01:12:03.367Z,82.59
2023-04-11T01:13:06.847Z,82.88
2023-04-11T01:14:09.746Z,82.97
2023-04-11T01:15:12.748Z,82.85
2023-04-11T01:16:16.126Z,82.98
2023-04-11T01:17:21.857Z,83.02
2023-04-11T01:18:26.813Z,82.85
2023-04-11T01:19:30.998Z,82.85
2023-04-11T01:20:34.633Z,82.91
2023-04-11T01:21:37.956Z,82.73
2023-04-11T01:22:42.319Z,82.76
2023-04-11T01:23:48.959Z,82.67
2023-04-11T01:24:52.135Z,82.77
2023-04-11T01:25:55.537Z,82.68
2023-04-11T01:26:58.616Z,83.03
2023-04-11T01:28:01.832Z,83.34
2023-04-11T01:29:04.959Z,83.19
2023-04-11T01:30:08.811Z,83.15
2023-04-11T01:31:12.151Z,83.04
2023-04-11T01:32:15.177Z,83.15
2023-04-11T01:33:18.300Z,82.98
2023-04-11T01:34:22.605Z,82.90
2023-04-11T01:35:25.620Z,82.98
2023-04-11T01:36:30.160Z,83.05
2023-04-11T01:37:33.436Z,83.07
2023-04-11T01:38:36.491Z,83.02
2023-04-11T01:39:39.652Z,83.12
2023-04-11T01:40:45.042Z,83.14
2023-04-11T01:41:49.168Z,83.07
2023-04-11T01:42:52.869Z,83.00
2023-04-11T01:43:57.144Z,83.07
2023-04-11T01:45:01.646Z,83.19
2023-04-11T01:46:04.692Z,83.26
2023-04-11T01:47:07.695Z,83.06
2023-04-11T01:48:10.830Z,83.03
2023-04-11T01:49:15.692Z,83.05
2023-04-11T01:50:18.738Z,83.24
2023-04-11T01:51:22.304Z,83.21
2023-04-11T01:52:25.340Z,83.15
2023-04-11T01:53:28.536Z,83.31
2023-04-11T01:54:31.452Z,83.39
2023-04-11T01:55:34.322Z,83.27
2023-04-11T01:56:37.168Z,83.08
2023-04-11T01:57:40.125Z,82.99
2023-04-11T01:58:43.072Z,83.12
2023-04-11T01:59:45.955Z,83.17
2023-04-11T02:00:48.870Z,83.05
2023-04-11T02:01:51.746Z,83.15
2023-04-11T02:02:54.870Z,83.13
2023-04-11T02:03:58.165Z,83.11
2023-04-11T02:05:01.205Z,83.22
2023-04-11T02:06:04.430Z,83.19
2023-04-11T02:07:07.406Z,83.27
2023-04-11T02:08:11.307Z,83.33
2023-04-11T02:09:14.263Z,83.37
2023-04-11T02:10:17.246Z,83.30
2023-04-11T02:11:20.183Z,83.42
2023-04-11T02:12:25.293Z,83.32
2023-04-11T02:13:28.574Z,83.13
2023-04-11T02:14:45.669Z,83.29
2023-04-11T02:15:49.114Z,83.30
2023-04-11T02:16:56.470Z,83.26
2023-04-11T02:18:00.403Z,83.34
2023-04-11T02:19:03.850Z,83.39
2023-04-11T02:20:07.831Z,83.43
2023-04-11T02:21:12.490Z,83.41
2023-04-11T02:22:16.281Z,83.56
2023-04-11T02:23:19.167Z,83.62
2023-04-11T02:24:22.862Z,83.47
2023-04-11T02:25:25.908Z,83.56
2023-04-11T02:26:29.135Z,83.52
2023-04-11T02:27:33.212Z,83.65
2023-04-11T02:28:36.787Z,83.64
2023-04-11T02:29:39.678Z,83.64
2023-04-11T02:30:42.726Z,83.77
2023-04-11T02:31:49.914Z,83.61
2023-04-11T02:32:53.673Z,83.79
2023-04-11T02:33:56.638Z,83.88
2023-04-11T02:34:59.488Z,83.86
2023-04-11T02:36:02.440Z,83.83
2023-04-11T02:37:05.743Z,83.72
2023-04-11T02:38:10.278Z,83.62
2023-04-11T02:39:14.003Z,83.76
2023-04-11T02:40:16.989Z,83.83
2023-04-11T02:41:20.028Z,83.98
2023-04-11T02:42:22.925Z,83.84
2023-04-11T02:43:25.883Z,83.75
2023-04-11T02:44:29.598Z,83.72
2023-04-11T02:45:33.281Z,83.83
2023-04-11T02:46:36.912Z,83.78
2023-04-11T02:47:41.914Z,83.90
2023-04-11T02:48:44.907Z,83.90
2023-04-11T02:49:48.292Z,84.02
2023-04-11T02:50:52.731Z,84.14
2023-04-11T02:51:55.695Z,84.17
2023-04-11T02:52:58.641Z,84.18
2023-04-11T02:54:03.241Z,84.26
2023-04-11T02:55:06.597Z,84.33
2023-04-11T02:56:13.385Z,84.46
2023-04-11T02:57:16.227Z,84.92
2023-04-11T02:58:25.943Z,85.17
2023-04-11T02:59:30.658Z,85.48
2023-04-11T03:00:34.835Z,85.32
2023-04-11T03:01:41.175Z,85.47
2023-04-11T03:02:44.146Z,85.30
2023-04-11T03:03:48.677Z,85.27
2023-04-11T03:04:51.777Z,85.30
2023-04-11T03:05:54.770Z,85.30
2023-04-11T03:06:58.913Z,85.35
2023-04-11T03:08:01.929Z,85.43
2023-04-11T03:09:07.585Z,85.32
2023-04-11T03:10:10.939Z,85.34
2023-04-11T03:11:13.797Z,85.47
2023-04-11T03:12:20.117Z,85.32
2023-04-11T03:13:28.976Z,85.34
2023-04-11T03:14:32.058Z,85.17
2023-04-11T03:15:35.048Z,85.27
2023-04-11T03:16:40.402Z,85.51
2023-04-11T03:17:43.641Z,85.65
2023-04-11T03:18:48.756Z,85.42
2023-04-11T03:19:51.682Z,85.48
2023-04-11T03:20:56.114Z,85.50
2023-04-11T03:22:01.614Z,85.35
2023-04-11T03:23:04.564Z,85.38
2023-04-11T03:24:07.868Z,85.30
2023-04-11T03:25:10.770Z,85.34
2023-04-11T03:26:14.444Z,85.32
2023-04-11T03:27:18.428Z,85.28
2023-04-11T03:28:21.674Z,85.17
2023-04-11T03:29:24.828Z,85.19
2023-04-11T03:30:41.199Z,85.33
2023-04-11T03:31:45.041Z,85.37
2023-04-11T03:32:50.201Z,85.45
2023-04-11T03:33:53.181Z,85.26
2023-04-11T03:35:00.587Z,85.25
2023-04-11T03:36:04.496Z,85.30
2023-04-11T03:37:07.620Z,85.28
2023-04-11T03:38:11.345Z,85.12
2023-04-11T03:39:14.359Z,85.09
2023-04-11T03:40:18.673Z,84.98
2023-04-11T03:41:24.892Z,84.97
2023-04-11T03:42:28.026Z,85.12
2023-04-11T03:43:33.644Z,85.10
2023-04-11T03:44:36.918Z,85.17
2023-04-11T03:45:40.132Z,85.22
2023-04-11T03:46:48.551Z,85.17
2023-04-11T03:47:52.200Z,85.24
2023-04-11T03:48:57.133Z,85.14
2023-04-11T03:50:01.380Z,85.03
2023-04-11T03:51:04.738Z,84.95
2023-04-11T03:52:17.508Z,84.89
2023-04-11T03:53:22.244Z,84.85
2023-04-11T03:54:26.881Z,84.91
2023-04-11T03:55:29.761Z,84.94
2023-04-11T03:56:32.905Z,85.01
2023-04-11T03:57:36.337Z,85.09
2023-04-11T03:58:39.527Z,85.06
2023-04-11T03:59:42.418Z,85.19
2023-04-11T04:00:47.938Z,85.28
2023-04-11T04:01:50.858Z,85.09
2023-04-11T04:02:54.184Z,85.17
2023-04-11T04:03:57.597Z,85.21
2023-04-11T04:05:01.583Z,85.29
2023-04-11T04:06:06.676Z,85.30
2023-04-11T04:07:10.154Z,85.38
2023-04-11T04:08:16.403Z,85.55
2023-04-11T04:09:24.328Z,85.53
2023-04-11T04:10:30.248Z,85.49
2023-04-11T04:11:33.292Z,85.55
2023-04-11T04:12:36.248Z,85.57
2023-04-11T04:13:54.557Z,85.69
2023-04-11T04:14:57.837Z,85.85
2023-04-11T04:16:03.511Z,86.06
2023-04-11T04:17:07.574Z,86.21
2023-04-11T04:18:10.512Z,86.13
2023-04-11T04:19:23.718Z,86.10
2023-04-11T04:20:26.650Z,86.10
2023-04-11T04:21:32.625Z,86.16
2023-04-11T04:22:35.830Z,86.33
2023-04-11T04:23:39.515Z,86.30
2023-04-11T04:24:58.294Z,86.52
2023-04-11T04:26:06.964Z,86.52
2023-04-11T04:27:11.519Z,86.69
2023-04-11T04:28:22.530Z,86.77
2023-04-11T04:29:34.098Z,86.90
2023-04-11T04:30:38.344Z,87.08
2023-04-11T04:31:50.662Z,87.18
2023-04-11T04:32:59.204Z,87.12
2023-04-11T04:34:08.880Z,87.13
2023-04-11T04:35:14.308Z,86.93
2023-04-11T04:36:19.950Z,86.97
2023-04-11T04:37:25.316Z,86.77
2023-04-11T04:38:48.628Z,86.82
2023-04-11T04:39:56.889Z,86.99
2023-04-11T04:41:02.198Z,86.89
2023-04-11T04:42:05.361Z,86.94
2023-04-11T04:43:18.718Z,87.05
2023-04-11T04:44:30.070Z,87.05
2023-04-11T04:45:37.610Z,87.15
2023-04-11T04:46:41.185Z,87.11
2023-04-11T04:47:44.197Z,86.96
2023-04-11T04:48:47.101Z,87.02
2023-04-11T04:49:56.027Z,86.92
2023-04-11T04:50:58.916Z,87.01
2023-04-11T04:52:01.844Z,87.09
2023-04-11T04:53:04.753Z,87.20
2023-04-11T04:54:07.650Z,87.23
2023-04-11T04:55:10.860Z,87.26
2023-04-11T04:56:14.557Z,87.34
2023-04-11T04:57:21.275Z,87.30
2023-04-11T04:58:24.162Z,87.46
2023-04-11T04:59:28.111Z,87.54
2023-04-11T05:00:36.707Z,87.77
2023-04-11T05:01:40.663Z,88.00
2023-04-11T05:02:44.578Z,87.86
2023-04-11T05:03:50.972Z,87.93
2023-04-11T05:05:04.164Z,88.12
2023-04-11T05:06:07.746Z,88.00
2023-04-11T05:07:13.901Z,87.92
2023-04-11T05:08:19.817Z,87.90
2023-04-11T05:09:23.591Z,88.00
2023-04-11T05:10:27.709Z,87.99
2023-04-11T05:11:30.919Z,87.91
2023-04-11T05:12:33.990Z,88.01
2023-04-11T05:13:40.585Z,87.93
2023-04-11T05:14:43.698Z,88.00
2023-04-11T05:15:50.090Z,87.86
2023-04-11T05:16:53.761Z,87.96
2023-04-11T05:17:57.680Z,87.91
2023-04-11T05:19:01.458Z,87.91
2023-04-11T05:20:09.174Z,88.06
2023-04-11T05:21:13.660Z,88.03
2023-04-11T05:22:17.633Z,88.13
2023-04-11T05:23:23.683Z,88.17
2023-04-11T05:24:27.128Z,88.04
2023-04-11T05:25:33.925Z,88.17
2023-04-11T05:26:37.306Z,88.21
2023-04-11T05:27:40.564Z,87.98
2023-04-11T05:28:44.305Z,88.16
2023-04-11T05:29:50.129Z,88.28
2023-04-11T05:30:53.422Z,88.33
2023-04-11T05:31:56.634Z,88.17
2023-04-11T05:32:59.587Z,88.22
2023-04-11T05:34:02.478Z,88.19
2023-04-11T05:35:06.211Z,87.93
2023-04-11T05:36:15.725Z,88.05
2023-04-11T05:37:18.959Z,88.03
2023-04-11T05:38:21.965Z,88.00
2023-04-11T05:39:25.026Z,87.97
2023-04-11T05:40:28.155Z,87.83
2023-04-11T05:41:31.057Z,87.68
2023-04-11T05:42:34.043Z,87.78
2023-04-11T05:43:38.018Z,87.66
2023-04-11T05:44:41.300Z,87.64
2023-04-11T05:45:48.184Z,87.59
2023-04-11T05:46:52.160Z,87.49
2023-04-11T05:47:55.154Z,87.29
2023-04-11T05:48:58.783Z,87.36
2023-04-11T05:50:01.922Z,87.08
2023-04-11T05:51:05.698Z,87.19
2023-04-11T05:52:10.617Z,87.21
2023-04-11T05:53:13.521Z,87.31
2023-04-11T05:54:32.762Z,87.20
2023-04-11T05:55:37.064Z,87.19
2023-04-11T05:56:42.458Z,87.13
2023-04-11T05:57:45.684Z,86.95
2023-04-11T05:58:48.564Z,86.72
2023-04-11T05:59:53.172Z,86.61
2023-04-11T06:00:59.473Z,86.54
2023-04-11T06:02:02.530Z,86.41
2023-04-11T06:03:06.140Z,86.35
2023-04-11T06:04:09.304Z,86.36
2023-04-11T06:05:12.471Z,86.60
2023-04-11T06:06:15.881Z,86.53
2023-04-11T06:07:18.886Z,86.18
2023-04-11T06:08:22.246Z,86.09
2023-04-11T06:09:28.411Z,86.01
2023-04-11T06:10:31.514Z,85.97
2023-04-11T06:11:34.508Z,85.57
2023-04-11T06:12:37.357Z,85.24
2023-04-11T06:13:40.195Z,84.73
2023-04-11T06:14:43.376Z,84.69
2023-04-11T06:15:46.455Z,84.18
2023-04-11T06:16:49.426Z,83.82
2023-04-11T06:17:53.001Z,84.04
2023-04-11T06:18:55.914Z,83.89
2023-04-11T06:19:58.866Z,83.79
2023-04-11T06:21:01.767Z,83.78
2023-04-11T06:22:04.651Z,83.87
2023-04-11T06:23:07.574Z,83.70
2023-04-11T06:24:11.641Z,83.46
2023-04-11T06:25:14.564Z,83.19
2023-04-11T06:26:17.480Z,82.43
2023-04-11T06:27:20.350Z,82.79
2023-04-11T06:28:23.251Z,82.25
2023-04-11T06:29:26.128Z,81.65
2023-04-11T06:30:29.044Z,81.79
2023-04-11T06:31:32.751Z,81.76
2023-04-11T06:32:35.702Z,81.61
2023-04-11T06:33:38.571Z,81.32
2023-04-11T06:34:42.265Z,80.86
2023-04-11T06:35:45.114Z,80.98
2023-04-11T06:36:49.889Z,81.38
2023-04-11T06:37:53.133Z,81.14
2023-04-11T06:38:56.158Z,81.18
2023-04-11T06:40:00.503Z,81.05
2023-04-11T06:41:03.428Z,80.47
2023-04-11T06:42:06.466Z,80.30
2023-04-11T06:43:10.309Z,80.32
2023-04-11T06:44:13.344Z,80.39
2023-04-11T06:45:16.352Z,81.07
2023-04-11T06:46:19.280Z,80.38
2023-04-11T06:47:22.572Z,79.22
2023-04-11T06:48:25.487Z,78.85
2023-04-11T06:49:28.572Z,78.61
2023-04-11T06:50:31.497Z,78.94
2023-04-11T06:51:35.318Z,78.52
2023-04-11T06:52:38.365Z,77.84
2023-04-11T06:53:41.218Z,77.85
2023-04-11T06:54:44.122Z,78.10
2023-04-11T06:55:50.304Z,78.31
2023-04-11T06:56:53.305Z,78.36
2023-04-11T06:57:56.186Z,78.24
2023-04-11T06:58:59.205Z,77.80
2023-04-11T07:00:02.314Z,76.90
2023-04-11T07:01:06.106Z,76.96
2023-04-11T07:02:09.199Z,77.14
2023-04-11T07:03:12.542Z,76.18
2023-04-11T07:04:16.456Z,75.76
2023-04-11T07:05:19.458Z,76.00
2023-04-11T07:06:22.986Z,76.84
2023-04-11T07:07:26.128Z,76.66
2023-04-11T07:08:29.185Z,76.34
2023-04-11T07:09:32.090Z,76.28
2023-04-11T07:10:35.058Z,76.38
2023-04-11T07:11:38.747Z,76.41
2023-04-11T07:12:41.592Z,76.77
2023-04-11T07:13:44.515Z,76.67
2023-04-11T07:14:47.453Z,76.22
2023-04-11T07:15:50.371Z,76.01
2023-04-11T07:16:53.246Z,76.55
2023-04-11T07:17:56.169Z,76.57
2023-04-11T07:19:00.112Z,76.29
2023-04-11T07:20:07.102Z,75.89
2023-04-11T07:21:14.445Z,74.97
2023-04-11T07:22:17.375Z,75.15
2023-04-11T07:23:22.370Z,75.68
2023-04-11T07:24:27.271Z,75.67
2023-04-11T07:25:33.917Z,75.07
2023-04-11T07:26:38.988Z,74.64
2023-04-11T07:27:43.919Z,74.58
2023-04-11T07:28:47.573Z,74.74
2023-04-11T07:29:50.818Z,74.69
2023-04-11T07:30:53.678Z,74.86
2023-04-11T07:31:56.684Z,74.29
2023-04-11T07:32:59.661Z,74.26
2023-04-11T07:34:02.627Z,74.22
2023-04-11T07:35:05.926Z,74.53
2023-04-11T07:36:09.544Z,74.45
2023-04-11T07:37:12.612Z,74.52
2023-04-11T07:38:29.674Z,74.59
2023-04-11T07:39:33.492Z,74.58
2023-04-11T07:40:36.389Z,74.44
2023-04-11T07:41:39.521Z,74.41
2023-04-11T07:42:42.830Z,74.50
2023-04-11T07:43:45.720Z,74.13
2023-04-11T07:44:48.690Z,74.24
2023-04-11T07:45:52.525Z,74.01
2023-04-11T07:46:55.418Z,73.84
2023-04-11T07:47:58.276Z,73.69
2023-04-11T07:49:01.337Z,72.86
2023-04-11T07:50:04.839Z,73.52
2023-04-11T07:51:07.896Z,73.54
2023-04-11T07:52:12.425Z,73.61
2023-04-11T07:53:16.969Z,73.55
2023-04-11T07:54:19.899Z,73.59
2023-04-11T07:55:22.755Z,73.19
2023-04-11T07:56:25.685Z,73.35
2023-04-11T07:57:30.287Z,73.17
2023-04-11T07:58:33.181Z,73.22
2023-04-11T07:59:36.127Z,73.11
2023-04-11T08:00:38.990Z,72.85
2023-04-11T08:01:41.892Z,73.30
2023-04-11T08:02:44.960Z,73.75
2023-04-11T08:03:48.245Z,74.33
2023-04-11T08:04:51.335Z,74.05
2023-04-11T08:05:54.428Z,73.75
2023-04-11T08:06:58.258Z,73.85
2023-04-11T08:08:02.454Z,73.67
2023-04-11T08:09:05.766Z,73.36
2023-04-11T08:10:09.036Z,72.83
2023-04-11T08:11:11.922Z,72.47
2023-04-11T08:12:14.769Z,72.17
2023-04-11T08:13:17.680Z,72.07
2023-04-11T08:14:20.698Z,71.77
2023-04-11T08:15:23.573Z,71.45
2023-04-11T08:16:26.653Z,71.61
2023-04-11T08:17:29.663Z,71.95
2023-04-11T08:18:33.043Z,72.10
2023-04-11T08:19:36.954Z,72.07
2023-04-11T08:20:41.029Z,72.02
2023-04-11T08:21:44.052Z,72.14
2023-04-11T08:22:47.056Z,72.55
2023-04-11T08:23:50.959Z,72.70
2023-04-11T08:24:53.816Z,72.57
2023-04-11T08:25:56.950Z,72.05
2023-04-11T08:27:00.427Z,71.62
2023-04-11T08:28:05.155Z,71.57
2023-04-11T08:29:11.403Z,71.41
2023-04-11T08:30:15.169Z,71.42
2023-04-11T08:31:18.389Z,71.25
2023-04-11T08:32:21.607Z,71.07
2023-04-11T08:33:28.460Z,71.39
2023-04-11T08:34:34.297Z,71.51
2023-04-11T08:35:37.936Z,71.75
2023-04-11T08:36:41.776Z,71.41
2023-04-11T08:37:44.653Z,71.66
2023-04-11T08:38:47.721Z,72.02
2023-04-11T08:39:50.660Z,71.74
2023-04-11T08:40:54.952Z,71.22
2023-04-11T08:41:57.836Z,70.90
2023-04-11T08:43:01.539Z,70.48
2023-04-11T08:44:04.532Z,70.35
2023-04-11T08:45:09.516Z,70.58
2023-04-11T08:46:13.860Z,71.21
2023-04-11T08:47:16.856Z,71.33
2023-04-11T08:48:22.052Z,70.93
2023-04-11T08:49:25.104Z,70.77
2023-04-11T08:50:28.050Z,71.06
2023-04-11T08:51:31.610Z,70.83
2023-04-11T08:52:35.647Z,70.98
2023-04-11T08:53:39.969Z,70.88
2023-04-11T08:54:42.864Z,70.39
2023-04-11T08:55:47.082Z,70.54
2023-04-11T08:56:50.005Z,70.41
2023-04-11T08:57:53.940Z,69.92
2023-04-11T08:58:57.179Z,69.84
2023-04-11T09:00:08.461Z,69.86
2023-04-11T09:01:40.858Z,68.95
2023-04-11T09:02:59.352Z,69.60
2023-04-11T09:04:05.564Z,69.65
2023-04-11T09:05:24.864Z,69.45
2023-04-11T09:06:30.975Z,69.72
2023-04-11T09:07:50.195Z,70.01
2023-04-11T09:08:53.025Z,69.51
2023-04-11T09:09:55.925Z,69.53
2023-04-11T09:11:01.435Z,70.03
2023-04-11T09:12:04.572Z,69.50
2023-04-11T09:13:20.669Z,68.93
2023-04-11T09:14:27.129Z,68.89
2023-04-11T09:15:31.905Z,68.64
2023-04-11T09:16:37.276Z,68.31
2023-04-11T09:17:43.277Z,67.89
2023-04-11T09:18:47.153Z,67.50
2023-04-11T09:19:50.160Z,67.74
2023-04-11T09:21:01.315Z,67.76
2023-04-11T09:22:07.373Z,67.74
2023-04-11T09:23:24.296Z,67.90
2023-04-11T09:24:33.956Z,67.33
2023-04-11T09:25:44.648Z,67.22
2023-04-11T09:26:47.623Z,66.84
2023-04-11T09:28:06.806Z,66.69
2023-04-11T09:29:09.673Z,66.30
2023-04-11T09:30:24.039Z,66.65
2023-04-11T09:31:44.319Z,66.12
2023-04-11T09:32:49.154Z,65.54
2023-04-11T09:33:54.665Z,66.11
2023-04-11T09:35:11.979Z,66.02
2023-04-11T09:36:22.885Z,65.83
2023-04-11T09:37:26.105Z,65.67
2023-04-11T09:38:34.676Z,65.96
2023-04-11T09:39:37.691Z,65.76
2023-04-11T09:40:44.375Z,65.08
2023-04-11T09:41:47.557Z,64.77
2023-04-11T09:42:58.368Z,63.69
2023-04-11T09:44:01.941Z,63.77
2023-04-11T09:45:05.339Z,63.72
2023-04-11T09:46:09.949Z,64.62
2023-04-11T09:47:13.692Z,64.68
2023-04-11T09:48:17.846Z,63.97
2023-04-11T09:49:20.862Z,62.64
2023-04-11T09:50:25.777Z,62.97
2023-04-11T09:52:58.906Z,62.86
2023-04-11T09:53:40.559Z,62.58
2023-04-11T09:54:03.718Z,63.32
2023-04-11T09:55:08.500Z,62.71
2023-04-11T09:56:12.212Z,62.66
2023-04-11T09:57:16.011Z,62.66
2023-04-11T09:58:21.498Z,63.53
2023-04-11T09:59:26.356Z,63.09
2023-04-11T10:00:32.604Z,62.94
2023-04-11T10:01:37.434Z,62.75
2023-04-11T10:02:41.838Z,62.74
2023-04-11T10:03:47.434Z,62.68
2023-04-11T10:04:51.625Z,62.35
2023-04-11T10:05:55.965Z,61.20
2023-04-11T10:07:08.034Z,62.17
2023-04-11T10:08:13.694Z,62.04
2023-04-11T10:09:17.103Z,61.50
2023-04-11T10:10:22.090Z,62.14
2023-04-11T10:11:25.093Z,61.58
2023-04-11T10:12:32.169Z,61.66
2023-04-11T10:13:34.986Z,61.81
2023-04-11T10:14:37.931Z,60.26
2023-04-11T10:16:10.254Z,60.32
2023-04-11T10:17:24.009Z,60.86
2023-04-11T10:18:27.414Z,60.17
2023-04-11T10:19:30.274Z,59.68
2023-04-11T10:20:37.907Z,60.03
2023-04-11T10:21:42.801Z,60.04
2023-04-11T10:22:51.559Z,59.98
2023-04-11T10:24:15.856Z,60.00
2023-04-11T10:25:27.083Z,60.15
2023-04-11T10:26:56.277Z,59.69
2023-04-11T10:28:02.404Z,58.96
2023-04-11T10:29:28.200Z,58.70
2023-04-11T10:30:40.413Z,58.76
2023-04-11T10:32:12.864Z,58.51
2023-04-11T10:33:17.836Z,57.62
2023-04-11T10:34:21.182Z,57.96
2023-04-11T10:35:24.175Z,58.80
2023-04-11T10:36:27.084Z,59.05
2023-04-11T10:37:38.669Z,58.89
2023-04-11T10:38:44.437Z,59.07
2023-04-11T10:39:51.001Z,58.58
2023-04-11T10:41:34.121Z,58.32
2023-04-11T10:42:40.438Z,57.55
2023-04-11T10:43:43.544Z,57.69
2023-04-11T10:45:25.617Z,57.36
2023-04-11T10:46:28.498Z,57.71
2023-04-11T10:47:31.702Z,57.66
2023-04-11T10:48:58.440Z,57.11
2023-04-11T10:50:01.345Z,57.50
2023-04-11T10:51:23.469Z,57.48
2023-04-11T10:52:27.287Z,57.23
2023-04-11T10:53:36.458Z,57.64
2023-04-11T10:54:39.428Z,57.05
2023-04-11T10:55:50.734Z,56.38
2023-04-11T10:56:55.119Z,56.01
2023-04-11T10:58:04.440Z,56.47
2023-04-11T10:59:07.408Z,55.84
2023-04-11T11:00:13.239Z,55.36
2023-04-11T11:01:31.278Z,55.41
2023-04-11T11:02:41.473Z,54.70
2023-04-11T11:03:53.142Z,54.97
2023-04-11T11:04:56.447Z,55.20
2023-04-11T11:06:07.864Z,54.95
2023-04-11T11:07:15.747Z,55.04
2023-04-11T11:08:30.894Z,54.96
2023-04-11T11:09:34.977Z,55.08
2023-04-11T11:10:49.764Z,55.21
2023-04-11T11:12:13.206Z,54.97
2023-04-11T11:13:17.380Z,55.37
2023-04-11T11:14:30.504Z,55.27
2023-04-11T11:15:37.731Z,55.09
2023-04-11T11:16:46.425Z,55.05
2023-04-11T11:17:49.407Z,55.34
2023-04-11T11:18:56.713Z,55.20
2023-04-11T11:19:59.641Z,55.01
2023-04-11T11:21:02.711Z,54.72
2023-04-11T11:22:14.959Z,54.53
2023-04-11T11:23:17.858Z,54.60
2023-04-11T11:24:27.080Z,54.75
2023-04-11T11:25:30.760Z,54.31
2023-04-11T11:26:40.948Z,53.42
2023-04-11T11:27:43.870Z,53.27
2023-04-11T11:28:48.328Z,53.26
2023-04-11T11:29:52.077Z,53.74
2023-04-11T11:30:57.109Z,53.06
2023-04-11T11:32:01.107Z,53.61
2023-04-11T11:33:20.400Z,53.57
2023-04-11T11:34:34.297Z,52.58
2023-04-11T11:35:37.144Z,52.79
2023-04-11T11:36:42.437Z,52.59
2023-04-11T11:37:45.472Z,53.09
2023-04-11T11:38:48.375Z,53.27
2023-04-11T11:39:51.825Z,53.03
2023-04-11T11:40:55.912Z,52.75
2023-04-11T11:41:59.095Z,52.96
2023-04-11T11:43:02.034Z,51.80
2023-04-11T11:44:06.623Z,52.82
2023-04-11T11:45:22.490Z,53.07
2023-04-11T11:46:25.783Z,53.00
2023-04-11T11:47:28.920Z,52.90
2023-04-11T11:48:32.085Z,53.19
2023-04-11T11:49:48.446Z,52.92
2023-04-11T11:50:58.457Z,52.34
2023-04-11T11:52:02.212Z,52.36
2023-04-11T11:53:14.224Z,52.63
2023-04-11T11:54:17.223Z,52.91
2023-04-11T11:55:22.808Z,52.25
2023-04-11T11:56:27.065Z,51.45
2023-04-11T11:57:30.020Z,51.81
2023-04-11T11:58:43.177Z,51.53
2023-04-11T11:59:53.257Z,51.76
2023-04-11T12:00:56.287Z,51.89
2023-04-11T12:01:59.203Z,52.18
2023-04-11T12:03:02.969Z,52.24
2023-04-11T12:04:07.683Z,52.08
2023-04-11T12:05:11.827Z,51.96
2023-04-11T12:06:16.215Z,51.87
2023-04-11T12:07:22.932Z,51.47
2023-04-11T12:08:25.914Z,50.89
2023-04-11T12:09:33.594Z,50.58
2023-04-11T12:10:46.456Z,51.07
2023-04-11T12:11:49.572Z,51.49
2023-04-11T12:14:25.247Z,51.80
2023-04-11T12:15:28.146Z,52.30
2023-04-11T12:16:31.125Z,52.45
2023-04-11T12:17:36.948Z,51.92
2023-04-11T12:18:42.296Z,51.81
2023-04-11T12:19:45.248Z,51.82
2023-04-11T12:20:48.243Z,52.00
2023-04-11T12:21:51.731Z,52.10
2023-04-11T12:22:55.443Z,52.18
2023-04-11T12:23:58.717Z,52.36
2023-04-11T12:25:09.862Z,52.76
2023-04-11T12:26:13.699Z,52.39
2023-04-11T12:27:17.065Z,52.21
2023-04-11T12:28:20.014Z,52.11
2023-04-11T12:29:24.387Z,52.56
2023-04-11T12:30:30.124Z,52.57
2023-04-11T12:31:33.221Z,52.32
2023-04-11T12:32:36.359Z,52.42
2023-04-11T12:33:39.372Z,52.37
2023-04-11T12:34:42.231Z,52.30
2023-04-11T12:35:46.019Z,52.15
2023-04-11T12:36:48.841Z,52.11
2023-04-11T12:37:52.515Z,52.23
2023-04-11T12:38:55.692Z,52.15
2023-04-11T12:39:58.742Z,52.08
2023-04-11T12:41:26.261Z,51.85
2023-04-11T12:42:27.182Z,51.83
2023-04-11T12:43:30.574Z,51.76
2023-04-11T12:44:33.448Z,51.51
2023-04-11T12:45:36.382Z,51.38
2023-04-11T12:46:39.583Z,51.27
2023-04-11T12:47:43.078Z,51.50
2023-04-11T12:48:45.982Z,51.64
2023-04-11T12:49:48.858Z,51.06
2023-04-11T12:50:51.717Z,51.24
2023-04-11T12:51:55.010Z,51.23
2023-04-11T12:52:57.944Z,51.43
2023-04-11T12:54:00.986Z,51.54
2023-04-11T12:55:04.546Z,51.83
2023-04-11T12:56:08.001Z,51.44
2023-04-11T12:57:12.496Z,51.22
2023-04-11T12:58:15.877Z,51.05
2023-04-11T12:59:18.933Z,50.79
2023-04-11T13:00:22.000Z,50.84
2023-04-11T13:01:25.368Z,49.74
2023-04-11T13:02:31.232Z,50.24
2023-04-11T13:03:38.535Z,50.67
2023-04-11T13:04:42.239Z,49.88
2023-04-11T13:05:45.447Z,49.90
2023-04-11T13:06:48.322Z,50.24
2023-04-11T13:07:52.153Z,50.35
2023-04-11T13:08:56.736Z,49.90
2023-04-11T13:09:59.923Z,49.83
2023-04-11T13:11:02.823Z,50.31
2023-04-11T13:12:05.868Z,50.65
2023-04-11T13:13:18.022Z,51.00
2023-04-11T13:14:21.759Z,50.99
2023-04-11T13:15:24.696Z,50.88
2023-04-11T13:16:27.593Z,50.85
2023-04-11T13:17:30.454Z,50.69
2023-04-11T13:18:33.323Z,50.90
2023-04-11T13:19:36.236Z,51.08
2023-04-11T13:20:39.531Z,51.25
2023-04-11T13:21:42.463Z,51.00
2023-04-11T13:22:45.532Z,51.04
2023-04-11T13:23:48.743Z,51.00
2023-04-11T13:24:51.605Z,51.22
2023-04-11T13:25:54.473Z,51.58
2023-04-11T13:26:57.432Z,51.74
2023-04-11T13:28:01.045Z,51.61
2023-04-11T13:29:04.106Z,51.57
2023-04-11T13:30:08.303Z,51.49
2023-04-11T13:31:11.502Z,51.41
2023-04-11T13:32:14.396Z,51.59
2023-04-11T13:33:17.215Z,51.77
2023-04-11T13:34:20.321Z,51.91
2023-04-11T13:35:24.776Z,51.99
2023-04-11T13:36:29.325Z,51.88
2023-04-11T13:37:32.530Z,51.85
2023-04-11T13:38:35.383Z,51.99
2023-04-11T13:39:38.257Z,52.15
2023-04-11T13:40:42.778Z,52.38
2023-04-11T13:41:45.867Z,52.34
2023-04-11T13:42:48.695Z,52.60
2023-04-11T13:43:52.263Z,52.50
2023-04-11T13:44:55.103Z,52.45
2023-04-11T13:45:58.021Z,52.38
2023-04-11T13:47:02.834Z,52.39
2023-04-11T13:48:05.946Z,52.54
2023-04-11T13:49:08.855Z,52.20
2023-04-11T13:50:11.843Z,52.23
2023-04-11T13:51:14.783Z,52.11
2023-04-11T13:52:17.799Z,52.00
2023-04-11T13:53:20.634Z,52.22
2023-04-11T13:54:23.493Z,52.48
2023-04-11T13:55:26.316Z,52.44
2023-04-11T13:56:29.791Z,52.52
2023-04-11T13:57:32.686Z,52.50
2023-04-11T13:58:35.636Z,52.66
2023-04-11T13:59:38.565Z,52.80